Ballonweer?

Available data for EHGG from the past 2 hours
GRONINGEN/EELDE
Metar
EHGG 250325Z AUTO 14004KT 090V180 9999 NCD 09/08 Q1005

03:25 UTC

Wind: 140° 4kt

Visibility: 9999 m

Sky:

Temp: 9 deg C / 48.2 deg F

Dewpoint: 8 deg C / 46.4 deg F

Pressure: 1005 hPa

TAF
TAF EHGG 242302Z 2500/2606 18012KT 9999 BKN040 BECMG 2501/2504 15009KT BECMG 2509/2512 15015G25KT BECMG 2517/2520 12004KT TEMPO 2520/2605 6000 RA SHRA BKN020 FEW070CB PROB30 TEMPO 2520/2524 VRB17G30KT 4000 TSRA SCT070CB BECMG 2603/2606 22010KT

Buienradar (tot 2 uur vooruit)

 

KNMI weerbulletin kleine luchtvaart

Klik hier om het weerbulletin te openen in een nieuw tabblad.